Time;durP1;ratioP1;P1;durP2;ratioP2;P2;SDS_P1;SDS_P2;PMS_P1;PMS_P2;Temp;Humidity;BMP_temperature;BMP_pressure;BME280_temperature;BME280_humidity;BME280_pressure;Samples;Min_cycle;Max_cycle;Signal;HPM_P1;HPM_P2
2023/03/08 00:00:23;;;;;;;;;;;;;;;;;;5112863;28;975;-70
2023/03/08 00:02:48;;;;;;;;;;;;;;;;;;5112745;28;1979;-70
2023/03/08 00:05:13;;;;;;;;;;;;;;;;;;5113024;28;879;-70
2023/03/08 00:07:38;;;;;;;;;;;;;;;;;;5112525;28;888;-70
2023/03/08 00:10:04;;;;;;;;;;;;;;;;;;5111532;28;848;-70
2023/03/08 00:12:29;;;;;;;;;;;;;;;;;;5113278;28;946;-70
2023/03/08 00:14:55;;;;;;;;;;;;;;;;;;5111422;28;829;-69
2023/03/08 00:17:20;;;;;;;;;;;;;;;;;;5111754;28;979;-70
2023/03/08 00:19:45;;;;;;;;;;;;;;;;;;5112937;28;836;-70
2023/03/08 00:22:11;;;;;;;;;;;;;;;;;;5112964;28;1905;-70
2023/03/08 00:24:37;;;;;;;;;;;;;;;;;;5111546;28;1153;-70
2023/03/08 00:27:02;;;;;;;;;;;;;;;;;;5111439;28;785;-70
2023/03/08 00:29:28;;;;;;;;;;;;;;;;;;5112657;28;879;-70
2023/03/08 00:31:53;;;;;;;;;;;;;;;;;;5111112;28;1403;-70
2023/03/08 00:34:18;;;;;;;;;;;;;;;;;;5112577;28;899;-70
2023/03/08 00:36:43;;;;;;;;;;;;;;;;;;5112240;28;827;-70
2023/03/08 00:39:09;;;;;;;;;;;;;;;;;;5094099;28;1135;-70
2023/03/08 00:41:35;;;;;;;;;;;;;;;;;;5111163;28;1909;-70
2023/03/08 00:44:00;;;;;;;;;;;;;;;;;;5110821;28;900;-70
2023/03/08 00:46:25;;;;;;;;;;;;;;;;;;5112720;28;927;-70
2023/03/08 00:48:50;;;;;;;;;;;;;;;;;;5111292;28;1161;-70
2023/03/08 00:51:17;;;;;;;;;;;;;;;;;;5111365;28;1359;-70
2023/03/08 00:53:42;;;;;;;;;;;;;;;;;;5112757;28;927;-70
2023/03/08 00:56:07;;;;;;;;;;;;;;;;;;5111116;28;1229;-69
2023/03/08 00:58:32;;;;;;;;;;;;;;;;;;5112689;28;1060;-70
2023/03/08 01:00:58;;;;;;;;;;;;;;;;;;5111067;28;1213;-70
2023/03/08 01:03:24;;;;;;;;;;;;;;;;;;5115284;28;1906;-70
2023/03/08 01:05:51;;;;;;;;;;;;;;;;;;5117467;28;876;-70
2023/03/08 01:08:17;;;;;;;;;;;;;;;;;;5117321;28;995;-70
2023/03/08 01:10:46;;;;;;;;;;;;;;;;;;5115769;28;1233;-70
2023/03/08 01:13:11;;;;;;;;;;;;;;;;;;5116738;28;934;-70
2023/03/08 01:15:37;;;;;;;;;;;;;;;;;;5117118;28;920;-70
2023/03/08 01:18:03;;;;;;;;;;;;;;;;;;5117067;28;824;-70
2023/03/08 01:20:29;;;;;;;;;;;;;;;;;;5116537;28;828;-70
2023/03/08 01:22:54;;;;;;;;;;;;;;;;;;5116614;28;1957;-69
2023/03/08 01:25:19;;;;;;;;;;;;;;;;;;5116455;28;998;-71
2023/03/08 01:27:45;;;;;;;;;;;;;;;;;;5116990;28;824;-69
2023/03/08 01:30:10;;;;;;;;;;;;;;;;;;5117106;28;973;-70
2023/03/08 01:32:35;;;;;;;;;;;;;;;;;;5116995;28;892;-70
2023/03/08 01:35:03;;;;;;;;;;;;;;;;;;5116434;28;986;-70
2023/03/08 01:37:29;;;;;;;;;;;;;;;;;;5116880;28;785;-70
2023/03/08 01:39:54;;;;;;;;;;;;;;;;;;5116521;28;904;-69
2023/03/08 01:42:20;;;;;;;;;;;;;;;;;;5116262;28;1959;-70
2023/03/08 01:44:50;;;;;;;;;;;;;;;;;;5116241;28;812;-70
2023/03/08 01:47:19;;;;;;;;;;;;;;;;;;5116631;28;860;-70
2023/03/08 01:49:45;;;;;;;;;;;;;;;;;;5116399;28;883;-70
2023/03/08 01:52:11;;;;;;;;;;;;;;;;;;5116130;28;912;-70
2023/03/08 01:54:39;;;;;;;;;;;;;;;;;;5116271;28;812;-70
2023/03/08 01:57:07;;;;;;;;;;;;;;;;;;5114475;28;1446;-70
2023/03/08 01:59:33;;;;;;;;;;;;;;;;;;5114895;28;1015;-70
2023/03/08 02:01:58;;;;;;;;;;;;;;;;;;5113820;28;1909;-69
2023/03/08 02:04:25;;;;;;;;;;;;;;;;;;5114470;28;1044;-70
2023/03/08 02:06:50;;;;;;;;;;;;;;;;;;5114900;28;954;-71
2023/03/08 02:09:16;;;;;;;;;;;;;;;;;;5113711;28;1197;-70
2023/03/08 02:11:41;;;;;;;;;;;;;;;;;;5115730;28;856;-70
2023/03/08 02:14:06;;;;;;;;;;;;;;;;;;5114039;28;895;-70
2023/03/08 02:16:32;;;;;;;;;;;;;;;;;;5115032;28;941;-70
2023/03/08 02:19:01;;;;;;;;;;;;;;;;;;5113251;28;1268;-70
2023/03/08 02:21:27;;;;;;;;;;;;;;;;;;5114597;28;1981;-71
2023/03/08 02:23:53;;;;;;;;;;;;;;;;;;5114373;28;1101;-70
2023/03/08 02:26:18;;;;;;;;;;;;;;;;;;5096945;28;1309;-70
2023/03/08 02:28:44;;;;;;;;;;;;;;;;;;5096795;28;1136;-70
2023/03/08 02:31:10;;;;;;;;;;;;;;;;;;5115162;28;875;-70
2023/03/08 02:33:35;;;;;;;;;;;;;;;;;;5115673;28;966;-70
2023/03/08 02:36:06;;;;;;;;;;;;;;;;;;5114792;28;899;-70
2023/03/08 02:38:31;;;;;;;;;;;;;;;;;;5114231;28;1534;-70
2023/03/08 02:40:57;;;;;;;;;;;;;;;;;;5096700;28;1229;-71
2023/03/08 02:43:22;;;;;;;;;;;;;;;;;;5114863;28;1902;-70
2023/03/08 02:45:47;;;;;;;;;;;;;;;;;;5114803;28;899;-70
2023/03/08 02:48:13;;;;;;;;;;;;;;;;;;5114842;28;904;-70
2023/03/08 02:50:39;;;;;;;;;;;;;;;;;;5115647;28;904;-70
2023/03/08 02:53:04;;;;;;;;;;;;;;;;;;5114758;28;1056;-70
2023/03/08 02:55:29;;;;;;;;;;;;;;;;;;5114568;28;939;-70
2023/03/08 02:57:55;;;;;;;;;;;;;;;;;;5114179;28;1060;-70
2023/03/08 03:00:20;;;;;;;;;;;;;;;;;;5114756;27;820;-70
2023/03/08 03:02:45;;;;;;;;;;;;;;;;;;5114649;28;1963;-69
2023/03/08 03:05:11;;;;;;;;;;;;;;;;;;5114349;28;855;-69
2023/03/08 03:07:40;;;;;;;;;;;;;;;;;;5113448;28;1177;-70
2023/03/08 03:10:08;;;;;;;;;;;;;;;;;;5114546;28;946;-70
2023/03/08 03:12:34;;;;;;;;;;;;;;;;;;5114937;28;895;-70
2023/03/08 03:15:03;;;;;;;;;;;;;;;;;;5112585;28;1182;-69
2023/03/08 03:17:28;;;;;;;;;;;;;;;;;;5113023;28;1134;-70
2023/03/08 03:19:54;;;;;;;;;;;;;;;;;;5112366;28;1198;-69
2023/03/08 03:22:19;;;;;;;;;;;;;;;;;;5112591;28;1890;-70
2023/03/08 03:24:44;;;;;;;;;;;;;;;;;;5113999;28;979;-70
2023/03/08 03:27:09;;;;;;;;;;;;;;;;;;5113175;28;1038;-70
2023/03/08 03:29:36;;;;;;;;;;;;;;;;;;5113961;28;923;-70
2023/03/08 03:32:02;;;;;;;;;;;;;;;;;;5114598;28;809;-69
2023/03/08 03:34:28;;;;;;;;;;;;;;;;;;5113880;27;899;-70
2023/03/08 03:36:54;;;;;;;;;;;;;;;;;;5112352;28;860;-69
2023/03/08 03:39:19;;;;;;;;;;;;;;;;;;5113572;28;902;-70
2023/03/08 03:41:44;;;;;;;;;;;;;;;;;;5113821;28;1953;-70
2023/03/08 03:44:10;;;;;;;;;;;;;;;;;;5113274;27;959;-70
2023/03/08 03:46:35;;;;;;;;;;;;;;;;;;5113694;28;933;-70
2023/03/08 03:49:00;;;;;;;;;;;;;;;;;;5112289;28;1608;-69
2023/03/08 03:51:25;;;;;;;;;;;;;;;;;;5112191;28;1167;-69
2023/03/08 03:53:51;;;;;;;;;;;;;;;;;;5095452;28;1300;-69
2023/03/08 03:56:21;;;;;;;;;;;;;;;;;;5095229;28;1301;-70
2023/03/08 03:58:46;;;;;;;;;;;;;;;;;;5113863;28;1191;-69
2023/03/08 04:01:14;;;;;;;;;;;;;;;;;;5113749;28;923;-69
2023/03/08 04:03:39;;;;;;;;;;;;;;;;;;5113669;28;1967;-69
2023/03/08 04:06:10;;;;;;;;;;;;;;;;;;5112569;28;895;-69
2023/03/08 04:08:41;;;;;;;;;;;;;;;;;;5114375;28;835;-70
2023/03/08 04:11:08;;;;;;;;;;;;;;;;;;5111777;28;837;-70
2023/03/08 04:13:33;;;;;;;;;;;;;;;;;;5113486;28;860;-69
2023/03/08 04:15:58;;;;;;;;;;;;;;;;;;5112918;28;883;-70
2023/03/08 04:18:24;;;;;;;;;;;;;;;;;;5112115;28;970;-70
2023/03/08 04:20:49;;;;;;;;;;;;;;;;;;5112901;28;1133;-70
2023/03/08 04:23:14;;;;;;;;;;;;;;;;;;5112856;28;1959;-69
2023/03/08 04:25:39;;;;;;;;;;;;;;;;;;5112790;28;910;-70
2023/03/08 04:28:05;;;;;;;;;;;;;;;;;;5111149;28;1166;-69
2023/03/08 04:30:30;;;;;;;;;;;;;;;;;;5111250;28;1312;-70
2023/03/08 04:32:55;;;;;;;;;;;;;;;;;;5112945;28;903;-70
2023/03/08 04:35:21;;;;;;;;;;;;;;;;;;5111236;28;1134;-69
2023/03/08 04:37:46;;;;;;;;;;;;;;;;;;5110629;28;1161;-70
2023/03/08 04:40:12;;;;;;;;;;;;;;;;;;5112758;28;922;-69
2023/03/08 04:42:39;;;;;;;;;;;;;;;;;;5113449;27;1901;-69
2023/03/08 04:45:05;;;;;;;;;;;;;;;;;;5112601;28;851;-70
2023/03/08 04:47:30;;;;;;;;;;;;;;;;;;5112874;27;938;-69
2023/03/08 04:49:55;;;;;;;;;;;;;;;;;;5112775;28;903;-70
2023/03/08 04:52:21;;;;;;;;;;;;;;;;;;5112419;28;974;-70
2023/03/08 04:54:46;;;;;;;;;;;;;;;;;;5111613;28;1114;-69
2023/03/08 04:57:11;;;;;;;;;;;;;;;;;;5110682;28;1088;-69
2023/03/08 04:59:36;;;;;;;;;;;;;;;;;;5094600;28;1269;-69
2023/03/08 05:02:02;;;;;;;;;;;;;;;;;;5112065;28;1910;-70
2023/03/08 05:04:27;;;;;;;;;;;;;;;;;;5111295;28;923;-69
2023/03/08 05:06:53;;;;;;;;;;;;;;;;;;5112271;28;909;-69
2023/03/08 05:09:18;;;;;;;;;;;;;;;;;;5111302;28;903;-70
2023/03/08 05:11:43;;;;;;;;;;;;;;;;;;5112640;28;765;-69
2023/03/08 05:14:09;;;;;;;;;;;;;;;;;;5110601;28;1177;-69
2023/03/08 05:16:34;;;;;;;;;;;;;;;;;;5112689;28;871;-69
2023/03/08 05:18:59;;;;;;;;;;;;;;;;;;5111124;28;1305;-69
2023/03/08 05:21:25;;;;;;;;;;;;;;;;;;5110841;28;1913;-69
2023/03/08 05:23:50;;;;;;;;;;;;;;;;;;5112534;28;844;-70
2023/03/08 05:26:16;;;;;;;;;;;;;;;;;;5110640;28;1254;-69
2023/03/08 05:28:42;;;;;;;;;;;;;;;;;;5112224;28;919;-69
2023/03/08 05:31:09;;;;;;;;;;;;;;;;;;5112244;28;844;-69
2023/03/08 05:33:35;;;;;;;;;;;;;;;;;;5111386;28;1062;-70
2023/03/08 05:36:01;;;;;;;;;;;;;;;;;;5111799;28;891;-69
2023/03/08 05:38:27;;;;;;;;;;;;;;;;;;5111182;28;1396;-69
2023/03/08 05:40:52;;;;;;;;;;;;;;;;;;5111967;28;987;-70
2023/03/08 05:43:18;;;;;;;;;;;;;;;;;;5092994;28;1901;-69
2023/03/08 05:45:52;;;;;;;;;;;;;;;;;;5107010;28;1123;-70
2023/03/08 05:48:18;;;;;;;;;;;;;;;;;;5093999;28;1163;-69
2023/03/08 05:50:43;;;;;;;;;;;;;;;;;;5093870;28;1145;-69
2023/03/08 05:53:08;;;;;;;;;;;;;;;;;;5093315;28;1005;-69
2023/03/08 05:55:34;;;;;;;;;;;;;;;;;;5095520;28;939;-70
2023/03/08 05:57:59;;;;;;;;;;;;;;;;;;5094647;28;1277;-69
2023/03/08 06:00:24;;;;;;;;;;;;;;;;;;5094934;28;891;-70
2023/03/08 06:02:49;;;;;;;;;;;;;;;;;;5093740;28;1969;-70
2023/03/08 06:05:15;;;;;;;;;;;;;;;;;;5093494;28;1158;-70
2023/03/08 06:07:42;;;;;;;;;;;;;;;;;;5093670;28;1124;-69
2023/03/08 06:10:08;;;;;;;;;;;;;;;;;;5093366;28;1162;-69
2023/03/08 06:12:33;;;;;;;;;;;;;;;;;;5094859;28;1111;-69
2023/03/08 06:14:58;;;;;;;;;;;;;;;;;;5093539;28;1253;-70
2023/03/08 06:17:23;;;;;;;;;;;;;;;;;;5093818;28;812;-69
2023/03/08 06:19:49;;;;;;;;;;;;;;;;;;5095489;28;824;-70
2023/03/08 06:22:14;;;;;;;;;;;;;;;;;;5095175;28;1905;-69
2023/03/08 06:24:40;;;;;;;;;;;;;;;;;;5095394;28;859;-70
2023/03/08 06:27:05;;;;;;;;;;;;;;;;;;5093766;28;883;-70
2023/03/08 06:29:31;;;;;;;;;;;;;;;;;;5094332;28;1150;-70
2023/03/08 06:31:56;;;;;;;;;;;;;;;;;;5095193;28;829;-69
2023/03/08 06:34:22;;;;;;;;;;;;;;;;;;5093363;28;1269;-69
2023/03/08 06:36:47;;;;;;;;;;;;;;;;;;5093168;28;825;-69
2023/03/08 06:39:12;;;;;;;;;;;;;;;;;;5094751;28;969;-69
2023/03/08 06:41:38;;;;;;;;;;;;;;;;;;5093077;28;1945;-69
2023/03/08 06:44:03;;;;;;;;;;;;;;;;;;5093636;28;1054;-69
2023/03/08 06:46:28;;;;;;;;;;;;;;;;;;5093220;28;1296;-69
2023/03/08 06:48:54;;;;;;;;;;;;;;;;;;5094730;28;844;-69
2023/03/08 06:51:20;;;;;;;;;;;;;;;;;;5095123;28;992;-70
2023/03/08 06:53:45;;;;;;;;;;;;;;;;;;5093547;28;924;-70
2023/03/08 06:56:12;;;;;;;;;;;;;;;;;;5093266;28;1131;-70
2023/03/08 06:58:37;;;;;;;;;;;;;;;;;;5094425;28;1199;-70
2023/03/08 07:01:04;;;;;;;;;;;;;;;;;;5092917;28;1014;-70
2023/03/08 07:03:30;;;;;;;;;;;;;;;;;;5076216;28;1918;-70
2023/03/08 07:06:02;;;;;;;;;;;;;;;;;;5094872;28;903;-70
2023/03/08 07:08:28;;;;;;;;;;;;;;;;;;5094399;28;899;-70
2023/03/08 07:10:53;;;;;;;;;;;;;;;;;;5095823;28;1241;-69
2023/03/08 07:13:20;;;;;;;;;;;;;;;;;;5096575;28;1108;-70
2023/03/08 07:15:46;;;;;;;;;;;;;;;;;;5103183;28;1288;-70
2023/03/08 07:18:11;;;;;;;;;;;;;;;;;;5092628;28;891;-70
2023/03/08 07:20:36;;;;;;;;;;;;;;;;;;5093792;28;845;-69
2023/03/08 07:23:02;;;;;;;;;;;;;;;;;;5092512;28;1963;-68
2023/03/08 07:25:27;;;;;;;;;;;;;;;;;;5094127;28;852;-70
2023/03/08 07:27:53;;;;;;;;;;;;;;;;;;5093217;28;754;-70
2023/03/08 07:30:18;;;;;;;;;;;;;;;;;;5091207;28;1015;-71
2023/03/08 07:32:43;;;;;;;;;;;;;;;;;;5091492;28;912;-70
2023/03/08 07:35:10;;;;;;;;;;;;;;;;;;5092191;28;809;-71
2023/03/08 07:37:35;;;;;;;;;;;;;;;;;;5092869;28;907;-71
2023/03/08 07:40:01;;;;;;;;;;;;;;;;;;5092277;28;888;-70
2023/03/08 07:42:26;;;;;;;;;;;;;;;;;;5073811;28;1973;-70
2023/03/08 07:44:51;;;;;;;;;;;;;;;;;;5091826;28;1071;-71
2023/03/08 07:47:17;;;;;;;;;;;;;;;;;;5091789;28;902;-70
2023/03/08 07:49:42;;;;;;;;;;;;;;;;;;5093385;28;982;-70
2023/03/08 07:52:07;;;;;;;;;;;;;;;;;;5091975;28;1005;-71
2023/03/08 07:54:32;;;;;;;;;;;;;;;;;;5092105;28;963;-72
2023/03/08 07:56:58;;;;;;;;;;;;;;;;;;5093979;28;1046;-72
2023/03/08 07:59:23;;;;;;;;;;;;;;;;;;5092961;28;1164;-71
2023/03/08 08:01:49;;;;;;;;;;;;;;;;;;5093618;28;1969;-71
2023/03/08 08:04:14;;;;;;;;;;;;;;;;;;5093654;28;900;-72
2023/03/08 08:06:40;;;;;;;;;;;;;;;;;;5092240;28;1253;-71
2023/03/08 08:09:06;;;;;;;;;;;;;;;;;;5091996;28;1142;-71
2023/03/08 08:11:33;;;;;;;;;;;;;;;;;;5091369;28;1259;-71
2023/03/08 08:13:58;;;;;;;;;;;;;;;;;;5092535;28;841;-69
2023/03/08 08:16:24;;;;;;;;;;;;;;;;;;5092399;28;1034;-71
2023/03/08 08:18:50;;;;;;;;;;;;;;;;;;5092482;28;1170;-71
2023/03/08 08:21:16;;;;;;;;;;;;;;;;;;5092344;28;1223;-71
2023/03/08 08:23:42;;;;;;;;;;;;;;;;;;5092893;28;1970;-70
2023/03/08 08:26:09;;;;;;;;;;;;;;;;;;5093139;28;805;-71
2023/03/08 08:28:34;;;;;;;;;;;;;;;;;;5092413;28;1253;-71
2023/03/08 08:31:01;;;;;;;;;;;;;;;;;;5093731;28;837;-71
2023/03/08 08:33:27;;;;;;;;;;;;;;;;;;5093063;28;903;-71
2023/03/08 08:35:52;;;;;;;;;;;;;;;;;;5091751;28;1126;-71
2023/03/08 08:38:18;;;;;;;;;;;;;;;;;;5092853;28;844;-70
2023/03/08 08:40:43;;;;;;;;;;;;;;;;;;5091205;28;1280;-71
2023/03/08 08:43:08;;;;;;;;;;;;;;;;;;5092398;28;1910;-71
2023/03/08 08:45:33;;;;;;;;;;;;;;;;;;5091456;28;1277;-71
2023/03/08 08:47:59;;;;;;;;;;;;;;;;;;5091478;28;821;-71
2023/03/08 08:50:24;;;;;;;;;;;;;;;;;;5092428;28;864;-71
2023/03/08 08:52:49;;;;;;;;;;;;;;;;;;5091367;28;1241;-70
2023/03/08 08:55:15;;;;;;;;;;;;;;;;;;5092583;28;915;-70
2023/03/08 08:57:40;;;;;;;;;;;;;;;;;;5090983;28;1166;-70
2023/03/08 09:00:08;;;;;;;;;;;;;;;;;;5090889;28;1146;-70
2023/03/08 09:02:34;;;;;;;;;;;;;;;;;;5091208;28;1918;-71
2023/03/08 09:04:59;;;;;;;;;;;;;;;;;;5091199;28;841;-71
2023/03/08 09:07:24;;;;;;;;;;;;;;;;;;5092367;28;895;-71
2023/03/08 09:09:52;;;;;;;;;;;;;;;;;;5090822;28;1042;-71
2023/03/08 09:12:19;;;;;;;;;;;;;;;;;;5092379;28;872;-71
2023/03/08 09:14:45;;;;;;;;;;;;;;;;;;5092767;28;903;-70
2023/03/08 09:17:10;;;;;;;;;;;;;;;;;;5092091;28;884;-71
2023/03/08 09:19:36;;;;;;;;;;;;;;;;;;5092652;28;1055;-70
2023/03/08 09:22:02;;;;;;;;;;;;;;;;;;5074501;28;1906;-71
2023/03/08 09:24:27;;;;;;;;;;;;;;;;;;5095134;28;1081;-71
2023/03/08 09:26:52;;;;;;;;;;;;;;;;;;5095072;28;1205;-71
2023/03/08 09:29:18;;;;;;;;;;;;;;;;;;5096013;28;888;-71
2023/03/08 09:31:44;;;;;;;;;;;;;;;;;;5096348;28;861;-71
2023/03/08 09:34:10;;;;;;;;;;;;;;;;;;5094756;28;1411;-70
2023/03/08 09:36:38;;;;;;;;;;;;;;;;;;5095258;28;1145;-71
2023/03/08 09:39:04;;;;;;;;;;;;;;;;;;5095097;28;1181;-71
2023/03/08 09:41:48;;;;;;;;;;;;;;;;;;5094894;28;1192;-70
2023/03/08 09:44:16;;;;;;;;;;;;;;;;;;5096058;28;836;-71
2023/03/08 09:46:45;;;;;;;;;;;;;;;;;;5096414;28;911;-71
2023/03/08 09:49:31;;;;;;;;;;;;;;;;;;5095750;28;804;-71
2023/03/08 09:52:19;;;;;;;;;;;;;;;;;;5095273;28;1146;-71
2023/03/08 09:54:46;;;;;;;;;;;;;;;;;;5090375;28;984;-71
2023/03/08 09:57:21;;;;;;;;;;;;;;;;;;5096062;28;863;-71
2023/03/08 09:59:54;;;;;;;;;;;;;;;;;;5095857;28;1337;-71
2023/03/08 10:02:35;;;;;;;;;;;;;;;;;;5096203;28;1902;-71
2023/03/08 10:05:11;;;;;;;;;;;;;;;;;;5095887;28;848;-71
2023/03/08 10:07:48;;;;;;;;;;;;;;;;;;5094123;28;1245;-71
2023/03/08 10:10:38;;;;;;;;;;;;;;;;;;5093821;28;1325;-71
2023/03/08 10:13:07;;;;;;;;;;;;;;;;;;5095790;28;907;-71
2023/03/08 10:15:35;;;;;;;;;;;;;;;;;;5094442;28;1340;-71
2023/03/08 10:18:10;;;;;;;;;;;;;;;;;;5093739;28;975;-71
2023/03/08 10:20:36;;;;;;;;;;;;;;;;;;5094829;28;868;-70
2023/03/08 10:23:22;;;;;;;;;;;;;;;;;;5095114;28;1896;-70
2023/03/08 10:25:49;;;;;;;;;;;;;;;;;;5094299;28;1204;-71
2023/03/08 10:28:15;;;;;;;;;;;;;;;;;;5094783;28;1066;-70
2023/03/08 10:30:46;;;;;;;;;;;;;;;;;;5093650;28;1236;-70
2023/03/08 10:33:12;;;;;;;;;;;;;;;;;;5094863;28;929;-70
2023/03/08 10:35:52;;;;;;;;;;;;;;;;;;5093761;28;840;-71
2023/03/08 10:38:17;;;;;;;;;;;;;;;;;;5094965;28;753;-71
2023/03/08 10:40:43;;;;;;;;;;;;;;;;;;5093626;28;1252;-71
2023/03/08 10:43:14;;;;;;;;;;;;;;;;;;5094453;28;1902;-71
2023/03/08 10:45:39;;;;;;;;;;;;;;;;;;5093400;28;1082;-70
2023/03/08 10:48:04;;;;;;;;;;;;;;;;;;5095301;28;1029;-71
2023/03/08 10:50:35;;;;;;;;;;;;;;;;;;5093385;28;828;-71
2023/03/08 10:53:14;;;;;;;;;;;;;;;;;;5094920;28;944;-71
2023/03/08 10:55:42;;;;;;;;;;;;;;;;;;5094150;28;880;-70
2023/03/08 10:58:24;;;;;;;;;;;;;;;;;;5092719;28;1094;-71
2023/03/08 11:00:52;;;;;;;;;;;;;;;;;;5093456;28;1166;-71
2023/03/08 11:03:19;;;;;;;;;;;;;;;;;;5092381;28;1978;-72
2023/03/08 11:05:51;;;;;;;;;;;;;;;;;;5093692;28;1250;-71
2023/03/08 11:08:19;;;;;;;;;;;;;;;;;;5099883;28;1202;-71
2023/03/08 11:10:44;;;;;;;;;;;;;;;;;;5105275;28;1140;-71
2023/03/08 11:13:15;;;;;;;;;;;;;;;;;;5109961;28;1285;-70
2023/03/08 11:15:44;;;;;;;;;;;;;;;;;;5095081;28;1116;-71
2023/03/08 11:18:24;;;;;;;;;;;;;;;;;;5112527;28;1254;-69
2023/03/08 11:21:10;;;;;;;;;;;;;;;;;;5112203;28;938;-71
2023/03/08 11:23:46;;;;;;;;;;;;;;;;;;5100262;28;1968;-71
2023/03/08 11:26:22;;;;;;;;;;;;;;;;;;5112768;28;879;-71
2023/03/08 11:29:06;;;;;;;;;;;;;;;;;;5111179;28;1146;-71
2023/03/08 11:31:51;;;;;;;;;;;;;;;;;;5111917;28;1316;-70
2023/03/08 11:34:35;;;;;;;;;;;;;;;;;;5111154;28;1257;-70
2023/03/08 11:37:00;;;;;;;;;;;;;;;;;;5113922;28;808;-71
2023/03/08 11:39:29;;;;;;;;;;;;;;;;;;5114184;28;812;-71
2023/03/08 11:41:57;;;;;;;;;;;;;;;;;;5114013;28;1905;-70
2023/03/08 11:44:44;;;;;;;;;;;;;;;;;;5112077;28;1173;-70
2023/03/08 11:47:29;;;;;;;;;;;;;;;;;;5113167;28;931;-70
2023/03/08 11:50:07;;;;;;;;;;;;;;;;;;5113255;28;824;-70
2023/03/08 11:52:35;;;;;;;;;;;;;;;;;;5113650;28;931;-70
2023/03/08 11:55:19;;;;;;;;;;;;;;;;;;5113166;28;1002;-70
2023/03/08 11:57:48;;;;;;;;;;;;;;;;;;5111696;28;1297;-70
2023/03/08 12:00:32;;;;;;;;;;;;;;;;;;5111976;28;1545;-71
2023/03/08 12:03:00;;;;;;;;;;;;;;;;;;5111984;28;1905;-71
2023/03/08 12:05:29;;;;;;;;;;;;;;;;;;5113662;28;864;-71
2023/03/08 12:08:04;;;;;;;;;;;;;;;;;;5112616;28;1150;-71
2023/03/08 12:10:41;;;;;;;;;;;;;;;;;;5113549;28;864;-71
2023/03/08 12:13:18;;;;;;;;;;;;;;;;;;5114116;28;868;-71
2023/03/08 12:16:02;;;;;;;;;;;;;;;;;;5112181;28;1208;-71
2023/03/08 12:18:30;;;;;;;;;;;;;;;;;;5113736;28;827;-71
2023/03/08 12:21:01;;;;;;;;;;;;;;;;;;5114196;28;998;-70
2023/03/08 12:23:38;;;;;;;;;;;;;;;;;;5113684;28;1906;-71
2023/03/08 12:26:09;;;;;;;;;;;;;;;;;;5114040;28;914;-71
2023/03/08 12:28:39;;;;;;;;;;;;;;;;;;5114276;28;828;-70
2023/03/08 12:31:21;;;;;;;;;;;;;;;;;;5112478;28;1134;-70
2023/03/08 12:33:47;;;;;;;;;;;;;;;;;;5111989;28;1305;-70
2023/03/08 12:36:12;;;;;;;;;;;;;;;;;;5112085;28;989;-70
2023/03/08 12:38:45;;;;;;;;;;;;;;;;;;5113657;28;860;-70
2023/03/08 12:41:27;;;;;;;;;;;;;;;;;;5112900;28;876;-70
2023/03/08 12:44:00;;;;;;;;;;;;;;;;;;5113164;28;1897;-71
2023/03/08 12:46:25;;;;;;;;;;;;;;;;;;5111947;28;1295;-70
2023/03/08 12:48:52;;;;;;;;;;;;;;;;;;5111522;28;999;-70
2023/03/08 12:51:25;;;;;;;;;;;;;;;;;;5112961;28;917;-70
2023/03/08 12:53:50;;;;;;;;;;;;;;;;;;5113816;28;836;-70
2023/03/08 12:56:24;;;;;;;;;;;;;;;;;;5113814;28;821;-70
2023/03/08 12:58:51;;;;;;;;;;;;;;;;;;5112692;28;1206;-70
2023/03/08 13:01:23;;;;;;;;;;;;;;;;;;5113891;28;892;-70
2023/03/08 13:03:48;;;;;;;;;;;;;;;;;;5113877;28;1937;-70
2023/03/08 13:06:33;;;;;;;;;;;;;;;;;;5112783;28;903;-69
2023/03/08 13:09:04;;;;;;;;;;;;;;;;;;5091817;28;1008;-70
2023/03/08 13:11:37;;;;;;;;;;;;;;;;;;5113171;28;887;-70
2023/03/08 13:14:04;;;;;;;;;;;;;;;;;;5112166;28;1010;-71
2023/03/08 13:16:35;;;;;;;;;;;;;;;;;;5110268;28;841;-70
2023/03/08 13:19:21;;;;;;;;;;;;;;;;;;5111663;28;789;-71
2023/03/08 13:21:49;;;;;;;;;;;;;;;;;;5102717;28;1905;-70
2023/03/08 13:24:34;;;;;;;;;;;;;;;;;;5111692;28;824;-71
2023/03/08 13:26:59;;;;;;;;;;;;;;;;;;5110986;28;937;-70
2023/03/08 13:29:32;;;;;;;;;;;;;;;;;;5111327;28;918;-71
2023/03/08 13:32:02;;;;;;;;;;;;;;;;;;5111983;28;966;-71
2023/03/08 13:34:29;;;;;;;;;;;;;;;;;;5111715;28;910;-72
2023/03/08 13:36:55;;;;;;;;;;;;;;;;;;5110844;28;1366;-72
2023/03/08 13:39:22;;;;;;;;;;;;;;;;;;5111906;28;833;-72
2023/03/08 13:41:48;;;;;;;;;;;;;;;;;;5111978;28;1905;-71
2023/03/08 13:44:17;;;;;;;;;;;;;;;;;;5093878;28;1170;-71
2023/03/08 13:46:43;;;;;;;;;;;;;;;;;;5110605;28;1170;-70
2023/03/08 13:49:12;;;;;;;;;;;;;;;;;;5112169;28;844;-71
2023/03/08 13:51:37;;;;;;;;;;;;;;;;;;5112354;28;966;-71
2023/03/08 13:54:02;;;;;;;;;;;;;;;;;;5094234;28;1294;-70
2023/03/08 13:56:28;;;;;;;;;;;;;;;;;;5112986;28;813;-71
2023/03/08 13:58:55;;;;;;;;;;;;;;;;;;5111728;28;1080;-72
2023/03/08 14:01:22;;;;;;;;;;;;;;;;;;5104854;28;1246;-71
2023/03/08 14:03:48;;;;;;;;;;;;;;;;;;5092217;28;1902;-71
2023/03/08 14:06:16;;;;;;;;;;;;;;;;;;5091915;28;816;-71
2023/03/08 14:08:41;;;;;;;;;;;;;;;;;;5092007;28;852;-70
2023/03/08 14:11:12;;;;;;;;;;;;;;;;;;5092660;28;1227;-69
2023/03/08 14:13:40;;;;;;;;;;;;;;;;;;5096180;28;808;-70
2023/03/08 14:16:06;;;;;;;;;;;;;;;;;;5095210;28;805;-70
2023/03/08 14:18:36;;;;;;;;;;;;;;;;;;5094274;28;1152;-70
2023/03/08 14:21:19;;;;;;;;;;;;;;;;;;5095236;28;914;-70
2023/03/08 14:23:46;;;;;;;;;;;;;;;;;;5095167;28;1910;-70
2023/03/08 14:26:27;;;;;;;;;;;;;;;;;;5094530;28;892;-70
2023/03/08 14:29:11;;;;;;;;;;;;;;;;;;5093660;28;1150;-70
2023/03/08 14:31:38;;;;;;;;;;;;;;;;;;5094564;28;1234;-70
2023/03/08 14:34:04;;;;;;;;;;;;;;;;;;5109883;28;1355;-70
2023/03/08 14:36:30;;;;;;;;;;;;;;;;;;5105956;28;1175;-71
2023/03/08 14:38:58;;;;;;;;;;;;;;;;;;5106548;28;1217;-71
2023/03/08 14:41:31;;;;;;;;;;;;;;;;;;5106516;28;1073;-70
2023/03/08 14:43:56;;;;;;;;;;;;;;;;;;5098314;28;1910;-69
2023/03/08 14:46:22;;;;;;;;;;;;;;;;;;5105277;28;1163;-69
2023/03/08 14:48:58;;;;;;;;;;;;;;;;;;5114637;28;1154;-70
2023/03/08 14:51:37;;;;;;;;;;;;;;;;;;5114922;28;903;-69
2023/03/08 14:54:04;;;;;;;;;;;;;;;;;;5113525;28;1209;-69
2023/03/08 14:56:30;;;;;;;;;;;;;;;;;;5113788;28;1209;-69
2023/03/08 14:58:58;;;;;;;;;;;;;;;;;;5114470;28;1080;-70
2023/03/08 15:01:33;;;;;;;;;;;;;;;;;;5115221;28;849;-69
2023/03/08 15:03:59;;;;;;;;;;;;;;;;;;5114692;28;1913;-70
2023/03/08 15:06:26;;;;;;;;;;;;;;;;;;5113348;28;1161;-71
2023/03/08 15:08:52;;;;;;;;;;;;;;;;;;5114451;28;887;-70
2023/03/08 15:11:17;;;;;;;;;;;;;;;;;;5111368;28;1182;-70
2023/03/08 15:13:44;;;;;;;;;;;;;;;;;;5112897;28;1231;-71
2023/03/08 15:16:10;;;;;;;;;;;;;;;;;;5114036;28;880;-70
2023/03/08 15:18:36;;;;;;;;;;;;;;;;;;5113614;28;1292;-71
2023/03/08 15:21:01;;;;;;;;;;;;;;;;;;5113090;28;907;-70
2023/03/08 15:23:29;;;;;;;;;;;;;;;;;;5113638;28;1901;-70
2023/03/08 15:25:54;;;;;;;;;;;;;;;;;;5114385;27;903;-70
2023/03/08 15:28:20;;;;;;;;;;;;;;;;;;5114060;28;975;-70
2023/03/08 15:30:46;;;;;;;;;;;;;;;;;;5115045;28;962;-69
2023/03/08 15:33:11;;;;;;;;;;;;;;;;;;5113991;28;808;-69
2023/03/08 15:35:37;;;;;;;;;;;;;;;;;;5115048;28;915;-69
2023/03/08 15:38:02;;;;;;;;;;;;;;;;;;5114793;28;887;-69
2023/03/08 15:40:28;;;;;;;;;;;;;;;;;;5113509;28;1138;-70
2023/03/08 15:42:54;;;;;;;;;;;;;;;;;;5096236;28;1952;-69
2023/03/08 15:45:19;;;;;;;;;;;;;;;;;;5112771;28;832;-69
2023/03/08 15:47:57;;;;;;;;;;;;;;;;;;5113978;28;1190;-68
2023/03/08 15:50:23;;;;;;;;;;;;;;;;;;5114229;28;900;-69
2023/03/08 15:52:48;;;;;;;;;;;;;;;;;;5096387;28;1226;-70
2023/03/08 15:55:13;;;;;;;;;;;;;;;;;;5114348;28;872;-70
2023/03/08 15:57:39;;;;;;;;;;;;;;;;;;5113357;28;1197;-70
2023/03/08 16:00:08;;;;;;;;;;;;;;;;;;5114188;28;1333;-70
2023/03/08 16:02:33;;;;;;;;;;;;;;;;;;5115423;28;1975;-70
2023/03/08 16:04:58;;;;;;;;;;;;;;;;;;5112304;28;1355;-69
2023/03/08 16:07:23;;;;;;;;;;;;;;;;;;5105197;28;1175;-70
2023/03/08 16:09:49;;;;;;;;;;;;;;;;;;5092194;28;1321;-70
2023/03/08 16:12:14;;;;;;;;;;;;;;;;;;5092853;28;1097;-69
2023/03/08 16:14:45;;;;;;;;;;;;;;;;;;5093484;28;836;-69
2023/03/08 16:17:10;;;;;;;;;;;;;;;;;;5092786;28;899;-69
2023/03/08 16:19:35;;;;;;;;;;;;;;;;;;5091020;28;1264;-69
2023/03/08 16:22:01;;;;;;;;;;;;;;;;;;5091707;28;1906;-70
2023/03/08 16:24:27;;;;;;;;;;;;;;;;;;5093186;28;765;-70
2023/03/08 16:26:52;;;;;;;;;;;;;;;;;;5092890;28;955;-70
2023/03/08 16:29:18;;;;;;;;;;;;;;;;;;5091812;28;1118;-70
2023/03/08 16:31:43;;;;;;;;;;;;;;;;;;5092922;28;817;-70
2023/03/08 16:34:08;;;;;;;;;;;;;;;;;;5090934;28;1076;-70
2023/03/08 16:36:34;;;;;;;;;;;;;;;;;;5091898;28;927;-70
2023/03/08 16:38:59;;;;;;;;;;;;;;;;;;5092323;28;861;-70
2023/03/08 16:41:25;;;;;;;;;;;;;;;;;;5092262;28;781;-70
2023/03/08 16:43:50;;;;;;;;;;;;;;;;;;5091058;28;1967;-70
2023/03/08 16:46:17;;;;;;;;;;;;;;;;;;5073951;28;1172;-70
2023/03/08 16:48:42;;;;;;;;;;;;;;;;;;5092651;28;1368;-70
2023/03/08 16:51:11;;;;;;;;;;;;;;;;;;5073969;28;1106;-69
2023/03/08 16:53:37;;;;;;;;;;;;;;;;;;5092494;28;1026;-70
2023/03/08 16:56:03;;;;;;;;;;;;;;;;;;5092662;28;982;-70
2023/03/08 16:58:28;;;;;;;;;;;;;;;;;;5091895;28;1357;-70
2023/03/08 17:00:53;;;;;;;;;;;;;;;;;;5092130;28;742;-70
2023/03/08 17:03:19;;;;;;;;;;;;;;;;;;5090941;28;1975;-70
2023/03/08 17:05:44;;;;;;;;;;;;;;;;;;5092706;28;891;-70
2023/03/08 17:08:10;;;;;;;;;;;;;;;;;;5092189;28;829;-70
2023/03/08 17:10:42;;;;;;;;;;;;;;;;;;5092309;28;831;-70
2023/03/08 17:13:08;;;;;;;;;;;;;;;;;;5092502;28;899;-70